createdAt,value
2019-01-17T00:02:39.496Z,3.45
2019-01-17T00:05:27.002Z,3.43
2019-01-17T00:08:13.667Z,3.46
2019-01-17T00:10:56.717Z,3.52
2019-01-17T00:13:36.022Z,3.51
2019-01-17T00:16:29.441Z,3.52
2019-01-17T00:19:16.394Z,3.54
2019-01-17T00:22:03.409Z,3.58
2019-01-17T00:24:56.728Z,3.61
2019-01-17T00:27:43.480Z,3.55
2019-01-17T00:30:31.162Z,3.58
2019-01-17T00:33:25.278Z,3.61
2019-01-17T00:36:19.534Z,3.58
2019-01-17T00:39:06.637Z,3.63
2019-01-17T00:42:02.322Z,3.62
2019-01-17T00:44:56.426Z,3.76
2019-01-17T00:47:45.243Z,3.62
2019-01-17T00:50:28.039Z,3.63
2019-01-17T00:53:14.804Z,3.72
2019-01-17T00:56:03.150Z,3.73
2019-01-17T00:58:50.068Z,3.71
2019-01-17T01:01:38.322Z,3.77
2019-01-17T01:04:29.323Z,3.71
2019-01-17T01:07:19.093Z,3.70
2019-01-17T01:10:00.677Z,3.76
2019-01-17T01:12:47.164Z,3.76
2019-01-17T01:15:31.205Z,3.73
2019-01-17T01:18:28.293Z,3.77
2019-01-17T01:21:24.401Z,3.78
2019-01-17T01:24:15.606Z,3.82
2019-01-17T01:27:03.844Z,3.79
2019-01-17T01:29:52.314Z,3.73
2019-01-17T01:32:49.591Z,3.72
2019-01-17T01:35:37.708Z,3.69
2019-01-17T01:38:35.042Z,3.73
2019-01-17T01:41:30.351Z,3.74
2019-01-17T01:44:24.490Z,3.73
2019-01-17T01:47:08.572Z,3.71
2019-01-17T01:50:03.947Z,3.76
2019-01-17T01:52:43.220Z,3.71
2019-01-17T01:55:12.332Z,3.80
2019-01-17T01:57:41.493Z,3.76
2019-01-17T02:00:11.171Z,3.80
2019-01-17T02:02:40.321Z,3.81
2019-01-17T02:05:09.617Z,3.73
2019-01-17T02:07:38.767Z,3.73
2019-01-17T02:10:08.871Z,3.75
2019-01-17T02:12:38.021Z,3.72
2019-01-17T02:15:07.155Z,3.68
2019-01-17T02:17:36.294Z,3.72
2019-01-17T02:20:07.739Z,3.70
2019-01-17T02:22:36.889Z,3.60
2019-01-17T02:25:07.009Z,3.62
2019-01-17T02:27:36.454Z,3.60
2019-01-17T02:30:06.188Z,3.61
2019-01-17T02:32:35.335Z,3.67
2019-01-17T02:35:04.464Z,3.58
2019-01-17T02:37:33.615Z,3.56
2019-01-17T02:40:02.760Z,3.55
2019-01-17T02:42:32.559Z,3.54
2019-01-17T02:45:01.815Z,3.50
2019-01-17T02:47:30.954Z,3.53
2019-01-17T02:50:00.230Z,3.55
2019-01-17T02:52:29.340Z,3.58
2019-01-17T02:54:58.424Z,3.53
2019-01-17T02:57:27.679Z,3.56
2019-01-17T02:59:56.783Z,3.53
2019-01-17T03:02:25.960Z,3.60
2019-01-17T03:04:55.060Z,3.63
2019-01-17T03:07:24.207Z,3.62
2019-01-17T03:09:53.676Z,3.60
2019-01-17T03:12:22.795Z,3.62
2019-01-17T03:14:51.925Z,3.65
2019-01-17T03:17:21.092Z,3.66
2019-01-17T03:19:50.181Z,3.66
2019-01-17T03:22:19.448Z,3.67
2019-01-17T03:24:48.924Z,3.72
2019-01-17T03:27:18.078Z,3.63
2019-01-17T03:29:47.491Z,3.68
2019-01-17T03:32:16.744Z,3.70
2019-01-17T03:34:45.909Z,3.71
2019-01-17T03:37:15.037Z,3.76
2019-01-17T03:39:44.306Z,3.74
2019-01-17T03:42:13.434Z,3.77
2019-01-17T03:44:42.792Z,3.76
2019-01-17T03:47:11.908Z,3.77
2019-01-17T03:49:41.125Z,3.73
2019-01-17T03:52:10.233Z,3.78
2019-01-17T03:54:39.366Z,3.75
2019-01-17T03:57:08.464Z,3.75
2019-01-17T03:59:37.600Z,3.72
2019-01-17T04:02:07.074Z,3.72
2019-01-17T04:04:36.393Z,3.69
2019-01-17T04:07:05.712Z,3.74
2019-01-17T04:09:34.887Z,3.66
2019-01-17T04:12:03.982Z,3.63
2019-01-17T04:14:33.108Z,3.66
2019-01-17T04:17:02.132Z,3.63
2019-01-17T04:19:31.266Z,3.70
2019-01-17T04:22:00.743Z,3.64
2019-01-17T04:24:29.897Z,3.67
2019-01-17T04:26:59.017Z,3.62
2019-01-17T04:29:28.154Z,3.59
2019-01-17T04:31:57.287Z,3.59
2019-01-17T04:34:26.445Z,3.65
2019-01-17T04:36:55.527Z,3.68
2019-01-17T04:39:24.657Z,3.71
2019-01-17T04:41:54.087Z,3.72
2019-01-17T04:44:23.258Z,3.79
2019-01-17T04:46:52.360Z,3.76
2019-01-17T04:49:21.538Z,3.74
2019-01-17T04:51:51.010Z,3.77
2019-01-17T04:54:20.457Z,3.72
2019-01-17T04:56:49.540Z,3.76
2019-01-17T04:59:18.669Z,3.73
2019-01-17T05:01:47.742Z,3.73
2019-01-17T05:04:16.868Z,3.77
2019-01-17T05:06:45.966Z,3.69
2019-01-17T05:09:15.139Z,3.66
2019-01-17T05:11:44.329Z,3.65
2019-01-17T05:14:13.647Z,3.70
2019-01-17T05:16:42.735Z,3.66
2019-01-17T05:19:11.861Z,3.68
2019-01-17T05:21:41.011Z,3.68
2019-01-17T05:24:10.149Z,3.70
2019-01-17T05:26:39.271Z,3.78
2019-01-17T05:29:08.423Z,3.72
2019-01-17T05:31:37.681Z,3.66
2019-01-17T05:34:06.818Z,3.63
2019-01-17T05:36:35.919Z,3.70
2019-01-17T05:39:07.808Z,3.68
2019-01-17T05:41:36.908Z,3.71
2019-01-17T05:44:06.055Z,3.73
2019-01-17T05:46:35.164Z,3.76
2019-01-17T05:49:06.562Z,3.63
2019-01-17T05:51:39.268Z,3.69
2019-01-17T05:54:11.953Z,3.64
2019-01-17T05:56:42.386Z,3.69
2019-01-17T05:59:11.574Z,3.71
2019-01-17T06:01:40.695Z,3.69
2019-01-17T06:04:09.847Z,3.68
2019-01-17T06:06:39.103Z,3.61
2019-01-17T06:09:11.991Z,3.57
2019-01-17T06:11:41.031Z,3.60
2019-01-17T06:14:10.930Z,3.58
2019-01-17T06:16:40.109Z,3.69
2019-01-17T06:19:09.216Z,3.57
2019-01-17T06:21:38.376Z,3.72
2019-01-17T06:24:07.844Z,3.63
2019-01-17T06:26:37.020Z,3.68
2019-01-17T06:29:06.277Z,3.73
2019-01-17T06:31:35.399Z,3.67
2019-01-17T06:34:04.590Z,3.54
2019-01-17T06:36:33.717Z,3.56
2019-01-17T06:39:03.661Z,3.50
2019-01-17T06:41:33.092Z,3.50
2019-01-17T06:44:02.194Z,3.55
2019-01-17T06:46:31.349Z,3.55
2019-01-17T06:49:01.303Z,3.55
2019-01-17T06:51:36.411Z,3.49
2019-01-17T06:54:05.761Z,3.46
2019-01-17T06:56:34.925Z,3.51
2019-01-17T06:59:04.135Z,3.45
2019-01-17T07:01:33.283Z,3.53
2019-01-17T07:04:02.395Z,3.56
2019-01-17T07:06:31.558Z,3.49
2019-01-17T07:09:00.699Z,3.51
2019-01-17T07:11:29.828Z,3.54
2019-01-17T07:13:59.105Z,3.58
2019-01-17T07:16:28.266Z,3.52
2019-01-17T07:18:57.593Z,3.65
2019-01-17T07:21:26.709Z,3.68
2019-01-17T07:23:55.886Z,3.62
2019-01-17T07:26:25.033Z,3.67
2019-01-17T07:28:54.193Z,3.76
2019-01-17T07:31:23.387Z,3.60
2019-01-17T07:33:52.481Z,3.64
2019-01-17T07:36:21.618Z,3.70
2019-01-17T07:38:50.728Z,3.74
2019-01-17T07:41:19.844Z,3.79
2019-01-17T07:43:49.036Z,3.78
2019-01-17T07:46:18.200Z,3.83
2019-01-17T07:48:47.314Z,3.86
2019-01-17T07:51:16.440Z,3.80
2019-01-17T07:53:45.545Z,3.77
2019-01-17T07:56:14.682Z,3.82
2019-01-17T07:58:43.775Z,3.90
2019-01-17T08:01:15.058Z,3.85
2019-01-17T08:03:43.813Z,3.83
2019-01-17T08:06:12.961Z,3.88
2019-01-17T08:08:42.486Z,3.87
2019-01-17T08:11:11.917Z,3.83
2019-01-17T08:13:41.139Z,3.85
2019-01-17T08:16:10.391Z,3.95
2019-01-17T08:18:39.491Z,3.97
2019-01-17T08:21:08.608Z,3.92
2019-01-17T08:23:37.784Z,3.86
2019-01-17T08:26:06.881Z,3.93
2019-01-17T08:28:36.005Z,4.12
2019-01-17T08:31:05.089Z,4.04
2019-01-17T08:33:34.212Z,4.03
2019-01-17T08:36:07.314Z,4.07
2019-01-17T08:38:36.492Z,4.07
2019-01-17T08:41:05.758Z,4.11
2019-01-17T08:43:34.944Z,4.11
2019-01-17T08:46:04.176Z,4.15
2019-01-17T08:48:33.304Z,4.12
2019-01-17T08:51:02.510Z,4.20
2019-01-17T08:53:31.659Z,4.13
2019-01-17T08:56:01.430Z,4.23
2019-01-17T08:58:30.690Z,4.20
2019-01-17T09:00:59.852Z,4.26
2019-01-17T09:03:28.970Z,4.20
2019-01-17T09:05:59.170Z,4.25
2019-01-17T09:08:28.434Z,4.23
2019-01-17T09:10:57.948Z,4.21
2019-01-17T09:13:27.179Z,4.24
2019-01-17T09:15:56.604Z,4.40
2019-01-17T09:18:25.903Z,4.27
2019-01-17T09:20:55.053Z,4.32
2019-01-17T09:23:24.171Z,4.19
2019-01-17T09:25:53.309Z,4.19
2019-01-17T09:28:22.479Z,4.28
2019-01-17T09:30:51.571Z,4.29
2019-01-17T09:33:20.692Z,4.24
2019-01-17T09:35:49.947Z,4.32
2019-01-17T09:38:19.239Z,4.36
2019-01-17T09:40:48.411Z,4.41
2019-01-17T09:43:17.556Z,4.28
2019-01-17T09:45:47.065Z,4.30
2019-01-17T09:48:16.250Z,4.32
2019-01-17T09:50:45.395Z,4.25
2019-01-17T09:53:14.652Z,4.34
2019-01-17T09:55:43.945Z,4.26
2019-01-17T09:58:13.070Z,4.29
2019-01-17T10:00:42.591Z,4.32
2019-01-17T10:03:11.862Z,4.38
2019-01-17T10:05:40.988Z,4.43
2019-01-17T10:08:10.227Z,4.52
2019-01-17T10:10:39.464Z,4.62
2019-01-17T10:13:08.653Z,4.68
2019-01-17T10:16:02.062Z,4.73
2019-01-17T10:19:06.234Z,4.79
2019-01-17T10:22:30.707Z,4.77
2019-01-17T10:25:40.967Z,4.78
2019-01-17T10:28:25.060Z,4.78
2019-01-17T10:31:38.651Z,4.78
2019-01-17T10:34:55.010Z,4.78
2019-01-17T10:37:50.875Z,4.72
2019-01-17T10:41:13.364Z,4.69
2019-01-17T10:44:16.042Z,4.82
2019-01-17T10:46:57.644Z,4.87
2019-01-17T10:49:57.695Z,5.01
2019-01-17T10:53:29.259Z,4.98
2019-01-17T10:56:41.560Z,4.84
2019-01-17T10:59:36.253Z,5.03
2019-01-17T11:02:33.414Z,5.13
2019-01-17T11:05:50.869Z,5.36
2019-01-17T11:09:04.879Z,5.17
2019-01-17T11:12:15.018Z,4.86
2019-01-17T11:15:22.848Z,4.89
2019-01-17T11:18:14.460Z,5.03
2019-01-17T11:21:30.405Z,5.08
2019-01-17T11:24:25.822Z,4.93
2019-01-17T11:27:31.963Z,4.93
2019-01-17T11:30:32.513Z,5.07
2019-01-17T11:33:19.725Z,5.15
2019-01-17T11:36:28.738Z,5.27
2019-01-17T11:39:21.557Z,5.26
2019-01-17T11:42:38.127Z,5.26
2019-01-17T11:45:29.855Z,5.29
2019-01-17T11:48:48.883Z,5.20
2019-01-17T11:51:43.472Z,5.14
2019-01-17T11:55:06.948Z,5.11
2019-01-17T11:58:08.733Z,5.19
2019-01-17T12:01:13.573Z,5.13
2019-01-17T12:04:17.555Z,5.14
2019-01-17T12:06:46.647Z,5.13
2019-01-17T12:09:15.831Z,5.18
2019-01-17T12:11:44.928Z,5.20
2019-01-17T12:14:14.053Z,5.20
2019-01-17T12:16:43.261Z,5.25
2019-01-17T12:19:12.817Z,5.29
2019-01-17T12:21:41.949Z,5.24
2019-01-17T12:24:11.162Z,5.31
2019-01-17T12:26:40.657Z,5.40
2019-01-17T12:29:09.781Z,5.34
2019-01-17T12:31:38.909Z,5.34
2019-01-17T12:34:07.991Z,5.27
2019-01-17T12:36:37.124Z,5.25
2019-01-17T12:39:09.374Z,5.24
2019-01-17T12:41:38.504Z,5.24
2019-01-17T12:44:07.638Z,5.32
2019-01-17T12:46:36.775Z,5.36
2019-01-17T12:49:05.898Z,5.36
2019-01-17T12:51:35.031Z,5.37
2019-01-17T12:54:04.540Z,5.36
2019-01-17T12:56:33.965Z,5.34
2019-01-17T12:59:02.982Z,5.32
2019-01-17T13:01:32.116Z,5.32
2019-01-17T13:04:01.213Z,5.32
2019-01-17T13:06:30.400Z,5.28
2019-01-17T13:08:59.538Z,5.29
2019-01-17T13:11:28.994Z,5.35
2019-01-17T13:13:58.161Z,5.29
2019-01-17T13:16:27.297Z,5.27
2019-01-17T13:18:56.435Z,5.20
2019-01-17T13:21:25.570Z,5.22
2019-01-17T13:23:54.671Z,5.20
2019-01-17T13:26:24.114Z,5.26
2019-01-17T13:28:53.284Z,5.25
2019-01-17T13:31:22.399Z,5.23
2019-01-17T13:33:51.664Z,5.20
2019-01-17T13:36:20.736Z,5.22
2019-01-17T13:38:49.983Z,5.27
2019-01-17T13:41:19.225Z,5.26
2019-01-17T13:43:48.364Z,5.31
2019-01-17T13:46:17.578Z,5.26
2019-01-17T13:48:46.777Z,5.18
2019-01-17T13:51:15.989Z,5.14
2019-01-17T13:53:45.108Z,5.13
2019-01-17T13:56:14.250Z,5.10
2019-01-17T13:58:43.355Z,5.05
2019-01-17T14:01:12.479Z,4.99
2019-01-17T14:03:41.650Z,5.01
2019-01-17T14:06:10.797Z,4.92
2019-01-17T14:08:40.027Z,4.88
2019-01-17T14:11:09.193Z,4.87
2019-01-17T14:13:38.461Z,4.87
2019-01-17T14:16:08.325Z,4.83
2019-01-17T14:18:37.550Z,4.86
2019-01-17T14:21:06.642Z,4.78
2019-01-17T14:23:35.803Z,4.90
2019-01-17T14:26:04.921Z,4.75
2019-01-17T14:28:34.061Z,4.74
2019-01-17T14:31:03.186Z,4.72
2019-01-17T14:33:32.359Z,4.66
2019-01-17T14:36:01.443Z,4.74
2019-01-17T14:38:30.537Z,4.78
2019-01-17T14:40:59.783Z,4.73
2019-01-17T14:43:29.004Z,4.75
2019-01-17T14:45:58.157Z,3.21
2019-01-17T14:48:27.239Z,2.53
2019-01-17T14:50:56.596Z,2.30
2019-01-17T14:53:25.934Z,2.21
2019-01-17T14:55:54.984Z,1.94
2019-01-17T14:58:24.089Z,1.85
2019-01-17T15:00:53.287Z,1.66
2019-01-17T15:03:22.472Z,1.79
2019-01-17T15:05:51.617Z,1.89
2019-01-17T15:08:20.994Z,1.75
2019-01-17T15:10:52.800Z,1.73
2019-01-17T15:13:21.910Z,1.85
2019-01-17T15:15:51.023Z,1.90
2019-01-17T15:18:20.065Z,1.87
2019-01-17T15:20:49.158Z,1.90
2019-01-17T15:23:18.275Z,1.91
2019-01-17T15:25:47.412Z,1.92
2019-01-17T15:28:16.495Z,1.94
2019-01-17T15:30:45.552Z,1.92
2019-01-17T15:33:14.651Z,1.99
2019-01-17T15:35:44.248Z,2.06
2019-01-17T15:38:13.349Z,1.91
2019-01-17T15:40:42.393Z,1.94
2019-01-17T15:43:11.518Z,2.04
2019-01-17T15:45:40.659Z,1.89
2019-01-17T15:48:09.776Z,1.85
2019-01-17T15:50:39.014Z,1.97
2019-01-17T15:53:08.177Z,1.90
2019-01-17T15:55:37.475Z,1.89
2019-01-17T15:58:06.600Z,1.95
2019-01-17T16:00:35.693Z,1.90
2019-01-17T16:03:04.772Z,1.93
2019-01-17T16:05:34.105Z,1.87
2019-01-17T16:08:03.245Z,1.86
2019-01-17T16:10:32.306Z,1.99
2019-01-17T16:13:01.344Z,1.97
2019-01-17T16:15:32.159Z,1.97
2019-01-17T16:18:05.103Z,1.89
2019-01-17T16:20:38.118Z,1.87
2019-01-17T16:23:07.252Z,2.05
2019-01-17T16:25:42.453Z,1.88
2019-01-17T16:28:17.365Z,1.97
2019-01-17T16:30:46.547Z,1.98
2019-01-17T16:33:15.706Z,1.90
2019-01-17T16:35:44.865Z,1.95
2019-01-17T16:38:14.119Z,1.97
2019-01-17T16:40:43.216Z,1.96
2019-01-17T16:43:12.283Z,1.93
2019-01-17T16:45:41.441Z,1.91
2019-01-17T16:48:10.622Z,1.97
2019-01-17T16:50:39.829Z,1.90
2019-01-17T16:53:08.913Z,1.93
2019-01-17T16:55:38.361Z,1.92
2019-01-17T16:58:07.766Z,1.89
2019-01-17T17:00:42.194Z,1.92
2019-01-17T17:03:11.287Z,1.99
2019-01-17T17:05:40.776Z,2.11
2019-01-17T17:08:09.840Z,2.06
2019-01-17T17:10:40.313Z,2.07
2019-01-17T17:13:09.531Z,2.00
2019-01-17T17:15:38.633Z,1.97
2019-01-17T17:18:07.723Z,2.00
2019-01-17T17:20:36.885Z,2.06
2019-01-17T17:23:06.118Z,1.98
2019-01-17T17:25:35.222Z,2.00
2019-01-17T17:28:04.506Z,2.09
2019-01-17T17:30:33.689Z,2.11
2019-01-17T17:33:02.919Z,2.16
2019-01-17T17:35:31.926Z,2.13
2019-01-17T17:38:02.213Z,2.10
2019-01-17T17:40:31.728Z,2.02
2019-01-17T17:43:00.793Z,1.95
2019-01-17T17:45:30.634Z,2.03
2019-01-17T17:48:01.552Z,1.96
2019-01-17T17:50:30.665Z,1.95
2019-01-17T17:52:59.798Z,1.93
2019-01-17T17:55:28.986Z,1.81
2019-01-17T17:58:02.197Z,1.84
2019-01-17T18:00:37.080Z,2.04
2019-01-17T18:03:06.356Z,1.95
2019-01-17T18:05:38.382Z,1.85
2019-01-17T18:08:14.895Z,1.97
2019-01-17T18:10:44.134Z,1.80
2019-01-17T18:13:13.234Z,1.73
2019-01-17T18:15:42.633Z,1.56
2019-01-17T18:18:21.712Z,1.37
2019-01-17T18:20:52.886Z,1.31
2019-01-17T18:23:21.952Z,1.06
2019-01-17T18:25:51.490Z,1.06
2019-01-17T18:28:20.614Z,1.04
2019-01-17T18:30:51.368Z,1.20
2019-01-17T18:33:23.987Z,1.36
2019-01-17T18:35:53.576Z,1.16
2019-01-17T18:38:32.605Z,1.18
2019-01-17T18:41:01.798Z,1.03
2019-01-17T18:43:33.649Z,1.18
2019-01-17T18:46:06.156Z,1.20
2019-01-17T18:48:44.262Z,1.18
2019-01-17T18:51:31.471Z,1.20
2019-01-17T18:54:00.555Z,1.37
2019-01-17T18:56:31.665Z,1.47
2019-01-17T18:59:02.401Z,1.26
2019-01-17T19:01:31.627Z,1.32
2019-01-17T19:04:00.703Z,1.26
2019-01-17T19:06:32.668Z,1.28
2019-01-17T19:09:01.880Z,1.13
2019-01-17T19:11:31.241Z,1.10
2019-01-17T19:14:00.310Z,1.36
2019-01-17T19:16:34.800Z,1.46
2019-01-17T19:19:03.963Z,1.44
2019-01-17T19:21:33.526Z,1.63
2019-01-17T19:24:02.658Z,1.49
2019-01-17T19:26:32.936Z,1.30
2019-01-17T19:29:03.839Z,1.49
2019-01-17T19:31:33.071Z,1.47
2019-01-17T19:34:02.178Z,1.47
2019-01-17T19:36:32.690Z,1.45
2019-01-17T19:39:04.768Z,1.42
2019-01-17T19:41:36.891Z,1.42
2019-01-17T19:44:08.999Z,1.36
2019-01-17T19:46:38.190Z,1.43
2019-01-17T19:49:07.257Z,1.34
2019-01-17T19:51:39.659Z,1.41
2019-01-17T19:54:11.499Z,1.48
2019-01-17T19:56:41.184Z,1.54
2019-01-17T19:59:10.167Z,1.42
2019-01-17T20:01:44.096Z,1.41
2019-01-17T20:04:13.897Z,1.54
2019-01-17T20:06:43.549Z,1.47
2019-01-17T20:09:15.787Z,1.41
2019-01-17T20:11:45.503Z,1.49
2019-01-17T20:14:15.081Z,1.42
2019-01-17T20:16:44.391Z,1.61
2019-01-17T20:19:13.536Z,1.51
2019-01-17T20:21:42.710Z,1.53
2019-01-17T20:24:15.257Z,1.57
2019-01-17T20:26:44.347Z,1.53
2019-01-17T20:29:17.066Z,1.64
2019-01-17T20:31:51.177Z,1.65
2019-01-17T20:34:24.014Z,1.59
2019-01-17T20:36:53.224Z,1.43
2019-01-17T20:39:22.277Z,1.51
2019-01-17T20:41:51.448Z,1.54
2019-01-17T20:44:21.551Z,1.55
2019-01-17T20:46:50.691Z,1.37
2019-01-17T20:49:19.926Z,1.36
2019-01-17T20:51:49.070Z,1.39
2019-01-17T20:54:18.174Z,1.35
2019-01-17T20:56:47.311Z,1.32
2019-01-17T20:59:16.552Z,1.33
2019-01-17T21:02:03.669Z,1.29
2019-01-17T21:04:32.752Z,1.36
2019-01-17T21:07:05.667Z,1.44
2019-01-17T21:09:32.834Z,1.40
2019-01-17T21:12:11.275Z,1.26
2019-01-17T21:14:41.474Z,1.45
2019-01-17T21:17:10.628Z,1.28
2019-01-17T21:19:41.888Z,1.27
2019-01-17T21:22:15.436Z,1.14
2019-01-17T21:24:47.641Z,1.11
2019-01-17T21:27:16.906Z,1.22
2019-01-17T21:29:49.020Z,1.09
2019-01-17T21:32:18.102Z,1.24
2019-01-17T21:34:47.515Z,1.20
2019-01-17T21:37:16.637Z,1.09
2019-01-17T21:39:45.630Z,1.11
2019-01-17T21:42:15.598Z,1.23
2019-01-17T21:44:44.601Z,1.28
2019-01-17T21:47:13.736Z,1.07
2019-01-17T21:49:43.084Z,0.98
2019-01-17T21:52:12.164Z,1.02
2019-01-17T21:54:41.278Z,0.99
2019-01-17T21:57:10.468Z,0.99
2019-01-17T21:59:39.599Z,1.06
2019-01-17T22:02:08.713Z,1.13
2019-01-17T22:04:41.482Z,1.31
2019-01-17T22:07:10.654Z,1.18
2019-01-17T22:09:39.972Z,1.07
2019-01-17T22:12:09.073Z,1.10
2019-01-17T22:14:38.881Z,1.08
2019-01-17T22:17:08.041Z,1.14
2019-01-17T22:19:46.330Z,1.12
2019-01-17T22:22:15.374Z,1.07
2019-01-17T22:24:44.474Z,1.05
2019-01-17T22:27:13.947Z,1.00
2019-01-17T22:29:47.865Z,0.96
2019-01-17T22:32:17.303Z,1.08
2019-01-17T22:34:46.409Z,1.00
2019-01-17T22:37:15.604Z,1.06
2019-01-17T22:39:44.754Z,1.05
2019-01-17T22:42:14.024Z,1.16
2019-01-17T22:44:43.122Z,1.11
2019-01-17T22:47:12.360Z,1.29
2019-01-17T22:49:41.444Z,1.05
2019-01-17T22:52:10.645Z,0.99
2019-01-17T22:54:39.667Z,0.97
2019-01-17T22:57:08.783Z,0.97
2019-01-17T22:59:37.901Z,1.03
2019-01-17T23:02:07.025Z,1.02
2019-01-17T23:04:36.071Z,0.98
2019-01-17T23:07:05.628Z,1.02
2019-01-17T23:09:34.850Z,1.08
2019-01-17T23:12:04.236Z,1.08
2019-01-17T23:14:33.460Z,1.02
2019-01-17T23:17:02.534Z,1.10
2019-01-17T23:19:31.825Z,1.00
2019-01-17T23:22:00.876Z,1.02
2019-01-17T23:24:30.171Z,1.02
2019-01-17T23:26:59.111Z,1.09
2019-01-17T23:29:28.165Z,1.00
2019-01-17T23:32:03.315Z,0.97
2019-01-17T23:34:32.596Z,0.95
2019-01-17T23:37:01.616Z,0.97
2019-01-17T23:39:30.618Z,0.96
2019-01-17T23:42:01.778Z,1.08
2019-01-17T23:44:30.845Z,0.97
2019-01-17T23:46:59.938Z,1.05
2019-01-17T23:49:29.020Z,0.88
2019-01-17T23:54:40.278Z,0.80
2019-01-17T23:57:09.446Z,0.77
2019-01-17T23:59:38.568Z,0.94
